Time;durP1;ratioP1;P1;durP2;ratioP2;P2;SDS_P1;SDS_P2;PMS_P1;PMS_P2;Temp;Humidity;BMP_temperature;BMP_pressure;BME280_temperature;BME280_humidity;BME280_pressure;Samples;Min_cycle;Max_cycle;Signal;HPM_P1;HPM_P2
2023/08/07 00:01:56;;;;;;;9.80;1.58;;;;;;;20.90;50.48;101150.84;5015118;28;20030;-67
2023/08/07 00:04:22;;;;;;;5.53;1.80;;;;;;;20.87;50.56;101151.22;5033598;28;20046;-68
2023/08/07 00:06:47;;;;;;;8.88;1.50;;;;;;;20.90;50.31;101148.13;5032762;28;20052;-68
2023/08/07 00:09:12;;;;;;;15.68;2.13;;;;;;;20.88;50.65;101153.75;5014611;28;20111;-68
2023/08/07 00:11:38;;;;;;;6.45;1.35;;;;;;;20.87;50.73;101151.22;5031760;28;20025;-68
2023/08/07 00:14:04;;;;;;;5.60;1.52;;;;;;;20.89;50.47;101154.59;5014955;28;20451;-68
2023/08/07 00:16:29;;;;;;;3.97;1.00;;;;;;;20.91;50.62;101155.25;5035777;28;20036;-68
2023/08/07 00:18:56;;;;;;;7.68;1.38;;;;;;;20.90;50.27;101150.84;5035798;28;20025;-68
2023/08/07 00:21:23;;;;;;;7.43;1.30;;;;;;;20.94;50.11;101154.03;5036951;28;20037;-68
2023/08/07 00:23:49;;;;;;;9.45;1.30;;;;;;;20.95;50.81;101148.41;5035391;28;20116;-68
2023/08/07 00:26:14;;;;;;;10.27;1.40;;;;;;;20.94;50.39;101149.41;5018952;28;20033;-68
2023/08/07 00:28:40;;;;;;;4.95;1.25;;;;;;;20.90;49.99;101140.81;5035192;28;20029;-70
2023/08/07 00:31:05;;;;;;;4.53;1.30;;;;;;;20.94;50.03;101152.13;5036385;28;20033;-69
2023/08/07 00:33:30;;;;;;;5.20;1.25;;;;;;;20.95;50.55;101148.41;5035290;28;20042;-68
2023/08/07 00:35:56;;;;;;;3.92;1.60;;;;;;;20.95;49.98;101148.41;5035308;28;20416;-68
2023/08/07 00:38:21;;;;;;;7.68;1.60;;;;;;;20.90;50.14;101145.41;5035207;28;20053;-69
2023/08/07 00:40:47;;;;;;;7.20;1.15;;;;;;;20.94;50.17;101149.41;5018821;28;20116;-69
2023/08/07 00:43:12;;;;;;;8.88;1.80;;;;;;;20.95;49.78;101158.44;5034982;28;20083;-69
2023/08/07 00:45:42;;;;;;;8.52;1.55;;;;;;;20.92;50.30;101149.63;5033974;28;20128;-68
2023/08/07 00:48:07;;;;;;;8.85;1.90;;;;;;;20.91;49.85;101152.50;5034995;28;20519;-69
2023/08/07 00:50:34;;;;;;;6.28;1.55;;;;;;;20.88;50.28;101158.38;5028794;28;20045;-68
2023/08/07 00:52:59;;;;;;;6.70;1.17;;;;;;;20.82;50.29;101153.66;5033870;28;20033;-68
2023/08/07 00:55:25;;;;;;;6.07;1.35;;;;;;;20.83;50.39;101156.19;5034984;28;20037;-68
2023/08/07 00:57:51;;;;;;;5.00;2.45;;;;;;;20.83;50.49;101152.63;5034820;28;20088;-69
2023/08/07 01:00:17;;;;;;;6.43;1.20;;;;;;;20.81;49.91;101146.53;5018133;28;20033;-68
2023/08/07 01:02:42;;;;;;;10.60;2.05;;;;;;;20.78;49.51;101155.91;5034874;28;20052;-69
2023/08/07 01:05:08;;;;;;;7.22;1.90;;;;;;;20.76;50.40;101152.53;5034836;28;20038;-69
2023/08/07 01:07:33;;;;;;;4.88;1.75;;;;;;;20.80;50.85;101159.28;5034878;28;20033;-69
2023/08/07 01:10:03;;;;;;;5.53;1.65;;;;;;;20.80;50.34;101162.00;5017739;28;20045;-69
2023/08/07 01:12:40;;;;;;;8.98;1.63;;;;;;;20.80;49.87;101161.16;5035956;28;20025;-69
2023/08/07 01:15:13;;;;;;;4.20;1.33;;;;;;;20.79;49.87;101160.34;5034407;28;20033;-69
2023/08/07 01:17:39;;;;;;;4.43;1.42;;;;;;;20.77;50.36;101161.56;5018094;28;20037;-68
2023/08/07 01:20:05;;;;;;;11.55;1.52;;;;;;;20.77;50.07;101156.13;5035683;28;20500;-69
2023/08/07 01:22:30;;;;;;;7.70;1.65;;;;;;;20.77;49.79;101169.72;5034197;28;20040;-69
2023/08/07 01:24:56;;;;;;;4.07;1.73;;;;;;;20.80;50.29;101177.50;5035331;28;20029;-69
2023/08/07 01:27:34;;;;;;;4.32;1.20;;;;;;;20.77;50.20;101161.56;5048811;28;20044;-69
2023/08/07 01:30:23;;;;;;;6.25;1.98;;;;;;;20.78;50.17;101164.09;5054045;28;20049;-69
2023/08/07 01:33:17;;;;;;;6.13;1.45;;;;;;;20.80;49.74;101163.88;5054451;28;20021;-68
2023/08/07 01:35:46;;;;;;;4.82;1.30;;;;;;;20.79;50.03;101167.66;5055525;28;20467;-68
2023/08/07 01:38:12;;;;;;;5.55;1.65;;;;;;;20.82;49.86;101170.00;5054188;28;20029;-68
2023/08/07 01:40:40;;;;;;;6.55;1.25;;;;;;;20.83;50.41;101171.69;5054094;28;20078;-68
2023/08/07 01:43:05;;;;;;;3.35;1.00;;;;;;;20.82;50.24;101167.28;5054370;28;20033;-68
2023/08/07 01:45:31;;;;;;;3.92;1.35;;;;;;;20.80;49.77;101172.03;5053823;28;20063;-68
2023/08/07 01:47:56;;;;;;;2.25;1.10;;;;;;;20.82;49.42;101181.75;5054939;28;20041;-68
2023/08/07 01:50:22;;;;;;;8.85;1.33;;;;;;;20.83;49.61;101172.53;5055135;28;20484;-68
2023/08/07 01:52:48;;;;;;;10.07;1.63;;;;;;;20.82;49.81;101178.19;5053847;28;20041;-68
2023/08/07 01:55:15;;;;;;;4.32;1.33;;;;;;;20.82;50.03;101172.72;5053691;28;20432;-68
2023/08/07 01:57:40;;;;;;;7.38;1.33;;;;;;;20.81;49.79;101171.03;5055005;28;20033;-68
2023/08/07 02:00:08;;;;;;;6.00;1.52;;;;;;;20.81;50.02;101173.75;5036900;28;20060;-68
2023/08/07 02:02:34;;;;;;;11.75;2.22;;;;;;;20.83;50.29;101182.56;5054746;28;20083;-69
2023/08/07 02:04:59;;;;;;;5.55;1.30;;;;;;;20.83;49.83;101179.84;5053569;28;20033;-68
2023/08/07 02:07:24;;;;;;;4.38;1.42;;;;;;;20.84;49.48;101185.13;5054305;28;20161;-68
2023/08/07 02:09:51;;;;;;;5.30;0.93;;;;;;;20.86;49.67;101184.91;5053432;28;20131;-68
2023/08/07 02:12:17;;;;;;;6.00;2.40;;;;;;;20.86;49.53;101182.19;5054546;28;20048;-69
2023/08/07 02:14:43;;;;;;;7.50;1.42;;;;;;;20.85;50.32;101191.41;5054345;28;20083;-68
2023/08/07 02:17:08;;;;;;;6.30;1.70;;;;;;;20.85;50.37;101181.34;5024744;28;20098;-68
2023/08/07 02:19:35;;;;;;;9.93;1.50;;;;;;;20.82;49.37;101191.78;5033393;28;20048;-68
2023/08/07 02:22:01;;;;;;;8.57;1.45;;;;;;;20.81;50.06;101184.66;5033402;28;20496;-69
2023/08/07 02:24:26;;;;;;;13.63;1.45;;;;;;;20.78;49.73;101191.31;5033240;28;20037;-68
2023/08/07 02:26:51;;;;;;;7.82;1.60;;;;;;;20.79;49.53;101197.59;5045427;28;20079;-68
2023/08/07 02:29:17;;;;;;;9.23;1.50;;;;;;;20.78;49.81;101193.19;5053192;28;20407;-68
2023/08/07 02:31:43;;;;;;;3.88;1.00;;;;;;;20.78;50.03;101193.19;5053259;28;20048;-69
2023/08/07 02:34:09;;;;;;;4.47;1.45;;;;;;;20.78;49.40;101185.88;5052959;28;20029;-68
2023/08/07 02:36:34;;;;;;;7.40;1.25;;;;;;;20.73;49.97;101187.47;5054372;28;20127;-68
2023/08/07 02:39:01;;;;;;;5.70;2.38;;;;;;;20.73;49.79;101192.91;5052018;28;20570;-69
2023/08/07 02:41:26;;;;;;;3.60;1.52;;;;;;;20.75;50.31;101207.16;5054261;28;20033;-68
2023/08/07 02:43:52;;;;;;;3.78;1.27;;;;;;;20.75;49.94;101201.72;5051957;28;20033;-68
2023/08/07 02:46:18;;;;;;;6.30;1.80;;;;;;;20.76;50.02;101211.59;5052771;28;20045;-68
2023/08/07 02:48:44;;;;;;;5.32;1.70;;;;;;;20.74;50.56;101200.06;5053517;28;20033;-68
2023/08/07 02:51:09;;;;;;;6.60;1.70;;;;;;;20.72;49.71;101202.09;5052692;28;20105;-68
2023/08/07 02:53:35;;;;;;;3.40;1.30;;;;;;;20.70;49.64;101207.75;5052657;28;20040;-70
2023/08/07 02:56:00;;;;;;;4.80;1.05;;;;;;;20.69;49.90;101210.63;5022493;28;20029;-68
2023/08/07 02:58:26;;;;;;;2.40;1.00;;;;;;;20.70;50.54;101204.16;5047454;28;20033;-68
2023/08/07 03:00:51;;;;;;;10.75;1.98;;;;;;;20.69;50.54;101210.63;5052426;28;20039;-68
2023/08/07 03:03:17;;;;;;;4.47;1.55;;;;;;;20.69;50.53;101202.47;5052453;28;20405;-68
2023/08/07 03:05:52;;;;;;;6.78;1.20;;;;;;;20.70;50.64;101205.00;5035696;28;20036;-68
2023/08/07 03:08:17;;;;;;;6.43;1.45;;;;;;;20.67;50.25;101205.38;5053448;28;20045;-68
2023/08/07 03:10:53;;;;;;;4.50;1.42;;;;;;;20.71;49.75;101208.59;5035629;28;20037;-68
2023/08/07 03:13:19;;;;;;;4.45;1.20;;;;;;;20.70;50.03;101209.59;5052195;28;20033;-68
2023/08/07 03:15:44;;;;;;;2.55;1.27;;;;;;;20.68;49.62;101212.53;5052163;28;20043;-68
2023/08/07 03:18:11;;;;;;;3.10;1.15;;;;;;;20.68;49.99;101203.50;5054097;28;20048;-68
2023/08/07 03:20:37;;;;;;;4.63;1.30;;;;;;;20.67;50.63;101212.69;5054017;28;20036;-68
2023/08/07 03:23:02;;;;;;;3.40;1.20;;;;;;;20.64;50.08;101204.91;5053366;28;20029;-68
2023/08/07 03:25:28;;;;;;;4.25;1.08;;;;;;;20.61;49.35;101195.22;5052190;28;20036;-68
2023/08/07 03:27:53;;;;;;;10.48;1.40;;;;;;;20.61;49.73;101195.22;5052830;28;20593;-68
2023/08/07 03:30:18;;;;;;;4.63;1.50;;;;;;;20.61;50.11;101202.53;5052108;28;20032;-68
2023/08/07 03:32:44;;;;;;;2.45;1.05;;;;;;;20.58;49.92;101211.09;5052230;28;20385;-68
2023/08/07 03:35:10;;;;;;;8.57;1.55;;;;;;;20.54;50.34;101197.00;5052300;28;20048;-68
2023/08/07 03:37:35;;;;;;;5.00;1.05;;;;;;;20.53;49.95;101197.19;5052133;28;20496;-68
2023/08/07 03:40:00;;;;;;;2.83;1.40;;;;;;;20.56;49.98;101205.84;5052027;28;20416;-68
2023/08/07 03:42:26;;;;;;;7.82;1.25;;;;;;;20.58;50.26;101209.22;5053024;28;20094;-68
2023/08/07 03:44:52;;;;;;;5.07;1.10;;;;;;;20.58;49.96;101201.03;5051898;28;20037;-68
2023/08/07 03:47:17;;;;;;;6.55;1.23;;;;;;;20.61;50.21;101197.09;5053327;28;20032;-69
2023/08/07 03:49:42;;;;;;;8.18;1.10;;;;;;;20.59;50.09;101197.31;5052194;28;20039;-68
2023/08/07 03:52:08;;;;;;;5.15;1.75;;;;;;;20.57;50.80;101203.97;5051706;28;20064;-68
2023/08/07 03:54:33;;;;;;;7.93;1.33;;;;;;;20.57;50.40;101204.81;5051816;28;20037;-68
2023/08/07 03:56:58;;;;;;;6.03;1.50;;;;;;;20.58;50.09;101194.75;5050733;28;20029;-68
2023/08/07 03:59:25;;;;;;;4.18;0.90;;;;;;;20.56;50.40;101208.56;5034779;28;20048;-68
2023/08/07 04:01:50;;;;;;;9.25;1.60;;;;;;;20.56;49.63;101197.66;5052927;28;20029;-68
2023/08/07 04:04:15;;;;;;;8.65;1.98;;;;;;;20.60;50.25;101200.88;5051841;28;20041;-68
2023/08/07 04:06:41;;;;;;;8.02;1.20;;;;;;;20.60;49.71;101209.84;5051599;28;20040;-68
2023/08/07 04:09:10;;;;;;;4.28;2.33;;;;;;;20.60;49.56;101211.75;5035357;28;20040;-68
2023/08/07 04:11:35;;;;;;;2.30;1.23;;;;;;;20.62;49.31;101201.53;5051598;28;20032;-68
2023/08/07 04:14:00;;;;;;;6.05;1.17;;;;;;;20.61;49.71;101199.81;5034909;28;20029;-68
2023/08/07 04:16:26;;;;;;;5.95;1.75;;;;;;;20.61;49.89;101197.09;5052698;28;20514;-68
2023/08/07 04:18:51;;;;;;;7.15;1.55;;;;;;;20.60;50.19;101198.16;5053006;28;20029;-68
2023/08/07 04:21:17;;;;;;;8.00;1.15;;;;;;;20.59;50.47;101199.16;5052802;28;20041;-68
2023/08/07 04:23:42;;;;;;;15.18;2.72;;;;;;;20.67;49.28;101220.88;5051431;28;20515;-68
2023/08/07 04:26:09;;;;;;;6.28;1.40;;;;;;;20.65;49.47;101214.78;5051229;28;20456;-68
2023/08/07 04:28:34;;;;;;;5.10;1.08;;;;;;;20.64;49.35;101211.19;5052484;28;20120;-68
2023/08/07 04:30:59;;;;;;;6.80;1.48;;;;;;;20.65;49.71;101217.50;5052691;28;20063;-68
2023/08/07 04:33:25;;;;;;;8.45;1.00;;;;;;;20.67;49.50;101223.59;5035012;28;20500;-68
2023/08/07 04:35:50;;;;;;;7.45;1.92;;;;;;;20.69;49.75;101226.97;5018470;28;20029;-68
2023/08/07 04:38:17;;;;;;;4.90;1.15;;;;;;;20.66;49.51;101214.56;5052960;28;20029;-68
2023/08/07 04:40:47;;;;;;;1.63;0.98;;;;;;;20.67;49.30;101220.88;5034475;28;20082;-68
2023/08/07 04:43:16;;;;;;;8.43;2.50;;;;;;;20.69;49.51;101229.69;5051655;28;20071;-68
2023/08/07 04:45:44;;;;;;;6.55;1.10;;;;;;;20.71;48.94;101227.66;5051331;28;20025;-68
2023/08/07 04:48:11;;;;;;;7.03;1.73;;;;;;;20.69;49.34;101232.41;5051682;28;20025;-69
2023/08/07 04:50:36;;;;;;;6.05;1.50;;;;;;;20.69;49.51;101225.09;5035012;28;20017;-69
2023/08/07 04:53:02;;;;;;;5.10;1.52;;;;;;;20.70;49.81;101229.53;5035005;28;20065;-68
2023/08/07 04:55:28;;;;;;;6.18;1.30;;;;;;;20.67;49.30;101221.72;5053336;28;20025;-67
2023/08/07 04:57:56;;;;;;;8.50;1.10;;;;;;;20.71;49.67;101224.94;5051922;28;20032;-68
2023/08/07 05:00:21;;;;;;;4.70;0.90;;;;;;;20.75;48.69;101232.53;5052684;28;20036;-68
2023/08/07 05:02:48;;;;;;;2.58;1.00;;;;;;;20.74;49.41;101228.09;5030686;28;20092;-69
2023/08/07 05:05:15;;;;;;;7.80;2.13;;;;;;;20.76;49.61;101230.66;5055115;28;20032;-68
2023/08/07 05:07:41;;;;;;;8.23;2.33;;;;;;;20.75;48.90;101237.13;5055359;28;20033;-68
2023/08/07 05:10:07;;;;;;;3.58;1.15;;;;;;;20.77;49.38;101235.09;5037804;28;20492;-68
2023/08/07 05:12:32;;;;;;;6.55;1.83;;;;;;;20.80;49.09;101234.69;5054825;28;20067;-68
2023/08/07 05:14:58;;;;;;;5.03;1.02;;;;;;;20.77;48.66;101226.91;5037770;28;20500;-68
2023/08/07 05:17:24;;;;;;;5.50;1.10;;;;;;;20.77;48.54;101244.06;5054160;28;20087;-68
2023/08/07 05:19:49;;;;;;;5.85;1.40;;;;;;;20.78;48.75;101253.09;5054583;28;20033;-68
2023/08/07 05:22:16;;;;;;;5.43;1.10;;;;;;;20.77;48.59;101249.50;5055942;28;20037;-69
2023/08/07 05:24:43;;;;;;;5.72;1.80;;;;;;;20.82;48.91;101251.72;5055722;28;20481;-68
2023/08/07 05:27:09;;;;;;;4.38;1.83;;;;;;;20.84;49.07;101261.38;5053342;28;20037;-67
2023/08/07 05:29:42;;;;;;;3.67;1.20;;;;;;;20.84;49.08;101255.09;5056292;28;20044;-68
2023/08/07 05:32:08;;;;;;;3.35;1.40;;;;;;;20.86;48.92;101253.00;5056339;28;20052;-68
2023/08/07 05:34:35;;;;;;;6.85;1.50;;;;;;;20.90;48.87;101262.50;5055897;28;20396;-68
2023/08/07 05:37:00;;;;;;;3.75;1.27;;;;;;;20.92;48.65;101268.63;5047832;28;20028;-68
2023/08/07 05:39:26;;;;;;;4.78;0.90;;;;;;;20.92;48.28;101268.63;5065176;28;20032;-68
2023/08/07 05:41:53;;;;;;;6.55;1.52;;;;;;;20.94;48.45;101266.53;5053722;28;20037;-68
2023/08/07 05:44:20;;;;;;;12.02;1.77;;;;;;;20.94;48.08;101271.16;5055377;28;20026;-68
2023/08/07 05:46:45;;;;;;;4.70;1.23;;;;;;;20.97;48.70;101271.63;5037855;28;20029;-70
2023/08/07 05:49:11;;;;;;;4.70;1.13;;;;;;;20.98;48.75;101278.78;5055819;28;20032;-68
2023/08/07 05:51:36;;;;;;;3.63;1.13;;;;;;;20.96;48.73;101272.66;5055068;28;20033;-69
2023/08/07 05:54:02;;;;;;;2.97;1.10;;;;;;;20.98;49.08;101273.31;5057203;28;20431;-70
2023/08/07 05:56:27;;;;;;;5.60;1.10;;;;;;;20.99;48.37;101268.72;5056818;28;20028;-68
2023/08/07 05:58:53;;;;;;;4.68;1.15;;;;;;;20.96;48.64;101280.84;5053932;28;20036;-68
2023/08/07 06:01:18;;;;;;;6.47;1.60;;;;;;;21.01;48.72;101275.69;5054163;28;20400;-70
2023/08/07 06:03:43;;;;;;;5.40;1.27;;;;;;;21.04;48.32;101280.75;5054932;28;20108;-68
2023/08/07 06:06:09;;;;;;;4.65;1.70;;;;;;;21.06;48.45;101284.13;5053499;28;20047;-68
2023/08/07 06:08:34;;;;;;;4.65;1.17;;;;;;;21.08;48.19;101289.44;5054565;28;20088;-68
2023/08/07 06:11:03;;;;;;;2.78;0.90;;;;;;;21.10;48.46;101282.78;5036832;28;20033;-69
2023/08/07 06:13:28;;;;;;;5.15;1.05;;;;;;;21.15;49.03;101280.31;5021070;28;20090;-68
2023/08/07 06:15:54;;;;;;;3.13;1.45;;;;;;;21.17;48.61;101280.97;5053432;28;20029;-68
2023/08/07 06:18:19;;;;;;;5.10;1.73;;;;;;;21.19;48.21;101288.97;5036623;28;20037;-68
2023/08/07 06:20:46;;;;;;;5.78;1.13;;;;;;;21.23;47.61;101276.66;5036449;28;20099;-62
2023/08/07 06:23:11;;;;;;;5.38;1.60;;;;;;;21.23;48.57;101293.00;5036650;28;20033;-66
2023/08/07 06:25:37;;;;;;;4.85;1.38;;;;;;;21.21;48.09;101289.63;5053497;28;20029;-64
2023/08/07 06:28:04;;;;;;;8.45;0.95;;;;;;;21.25;48.43;101291.78;5054334;28;20141;-67
2023/08/07 06:30:31;;;;;;;4.82;1.55;;;;;;;21.29;48.28;101297.72;5054229;28;20560;-65
2023/08/07 06:32:56;;;;;;;9.82;1.33;;;;;;;21.32;48.35;101287.28;5036277;28;20040;-64
2023/08/07 06:35:22;;;;;;;10.32;1.92;;;;;;;21.37;48.36;101300.34;5052852;28;20029;-64
2023/08/07 06:37:48;;;;;;;4.53;1.38;;;;;;;21.41;47.80;101297.03;5053827;28;20063;-64
2023/08/07 06:40:13;;;;;;;2.58;0.98;;;;;;;21.44;48.63;101291.22;5054124;28;20500;-65
2023/08/07 06:42:39;;;;;;;4.32;1.33;;;;;;;21.50;47.79;101302.44;5052794;28;20440;-64
2023/08/07 06:45:06;;;;;;;5.45;1.42;;;;;;;21.60;48.32;101306.56;5052823;28;20400;-64
2023/08/07 06:47:31;;;;;;;4.10;1.30;;;;;;;21.66;47.67;101300.34;5036269;28;20522;-65
2023/08/07 06:49:57;;;;;;;8.00;1.10;;;;;;;21.71;47.49;101307.94;5035766;28;20067;-64
2023/08/07 06:52:22;;;;;;;4.28;1.30;;;;;;;21.75;48.36;101299.19;5052617;28;20040;-65
2023/08/07 06:54:48;;;;;;;4.75;2.10;;;;;;;21.82;47.84;101299.28;5052517;28;20037;-64
2023/08/07 06:57:13;;;;;;;3.03;1.30;;;;;;;21.92;48.21;101299.84;5019604;28;20033;-65
2023/08/07 06:59:39;;;;;;;3.72;1.25;;;;;;;22.00;47.29;101292.41;5052285;28;20055;-64
2023/08/07 07:02:04;;;;;;;6.80;0.93;;;;;;;22.09;47.30;101295.84;5053351;28;20044;-64
2023/08/07 07:04:30;;;;;;;4.30;1.27;;;;;;;22.20;47.77;101299.97;5052438;28;20037;-64
2023/08/07 07:06:55;;;;;;;4.82;1.20;;;;;;;22.28;47.75;101305.31;5052107;28;20041;-64
2023/08/07 07:09:21;;;;;;;6.93;1.10;;;;;;;22.30;48.01;101304.09;5051964;28;20049;-64
2023/08/07 07:11:48;;;;;;;1.95;1.13;;;;;;;22.30;47.50;101309.56;5052381;28;20115;-64
2023/08/07 07:14:13;;;;;;;3.10;1.25;;;;;;;22.35;47.38;101312.53;5053267;28;20496;-64
2023/08/07 07:16:39;;;;;;;8.45;1.42;;;;;;;22.40;47.00;101315.53;5052440;28;20112;-64
2023/08/07 07:19:08;;;;;;;4.38;1.77;;;;;;;22.46;47.30;101325.69;5052277;28;20103;-64
2023/08/07 07:21:33;;;;;;;4.50;1.88;;;;;;;22.51;47.14;101323.19;5052784;28;20086;-64
2023/08/07 07:23:59;;;;;;;5.65;1.13;;;;;;;22.59;47.51;101330.41;5053994;28;20041;-65
2023/08/07 07:26:24;;;;;;;6.72;1.40;;;;;;;22.67;47.01;101319.38;5052809;28;20095;-64
2023/08/07 07:28:51;;;;;;;5.30;1.30;;;;;;;22.74;46.86;101314.00;5051821;28;20079;-64
2023/08/07 07:31:16;;;;;;;4.15;0.98;;;;;;;22.88;46.63;101318.53;5053120;28;20121;-65
2023/08/07 07:33:42;;;;;;;4.97;1.73;;;;;;;23.00;46.27;101323.25;5035196;28;20064;-65
2023/08/07 07:36:07;;;;;;;8.23;1.33;;;;;;;23.13;46.60;101327.97;5053149;28;20085;-65
2023/08/07 07:38:32;;;;;;;5.75;1.15;;;;;;;23.30;46.68;101331.25;5051831;28;20044;-65
2023/08/07 07:40:58;;;;;;;9.48;1.58;;;;;;;23.42;46.22;101336.00;5034708;28;20037;-65
2023/08/07 07:43:23;;;;;;;3.38;1.33;;;;;;;23.49;46.58;101333.31;5052903;28;20099;-65
2023/08/07 07:45:49;;;;;;;2.65;1.33;;;;;;;23.65;46.27;101343.91;5034779;28;20551;-65
2023/08/07 07:48:14;;;;;;;5.45;1.10;;;;;;;23.74;45.90;101338.09;5051427;28;20048;-65
2023/08/07 07:50:41;;;;;;;8.02;1.23;;;;;;;23.92;45.67;101343.03;5051581;28;20062;-65
2023/08/07 07:53:06;;;;;;;8.73;1.52;;;;;;;24.19;45.54;101344.84;5051385;28;20530;-66
2023/08/07 07:55:32;;;;;;;9.23;1.42;;;;;;;24.33;45.22;101343.00;5021587;28;20037;-65
2023/08/07 07:57:57;;;;;;;7.93;1.45;;;;;;;24.62;45.34;101339.88;5027481;28;20114;-65
2023/08/07 08:00:26;;;;;;;8.55;2.42;;;;;;;24.86;44.91;101339.31;5051240;28;20037;-67
2023/08/07 08:02:53;;;;;;;7.28;2.63;;;;;;;25.40;43.44;101335.50;5035421;28;20040;-66
2023/08/07 08:05:18;;;;;;;7.65;1.42;;;;;;;25.84;43.29;101346.59;5051378;28;20047;-64
2023/08/07 08:07:44;;;;;;;7.28;1.42;;;;;;;25.77;44.20;101359.50;5034198;28;20443;-70
2023/08/07 08:10:09;;;;;;;5.53;1.83;;;;;;;25.78;43.99;101354.84;5021169;28;20046;-66
2023/08/07 08:12:35;;;;;;;5.45;1.40;;;;;;;25.96;43.48;101353.09;5031323;28;20045;-66
2023/08/07 08:15:01;;;;;;;10.05;1.30;;;;;;;26.09;43.04;101356.84;5014714;28;20030;-67
2023/08/07 08:17:27;;;;;;;5.38;1.45;;;;;;;26.52;42.44;101346.94;5045009;28;20544;-66
2023/08/07 08:19:52;;;;;;;5.47;1.33;;;;;;;26.42;43.18;101354.81;5051230;28;20116;-67
2023/08/07 08:22:18;;;;;;;5.43;1.30;;;;;;;26.75;42.93;101355.44;5051047;28;20033;-66
2023/08/07 08:24:44;;;;;;;7.35;1.33;;;;;;;27.00;42.09;101366.50;5052302;28;20104;-67
2023/08/07 08:27:10;;;;;;;7.68;2.22;;;;;;;27.33;41.71;101367.03;5052416;28;20508;-67
2023/08/07 08:29:35;;;;;;;7.95;1.80;;;;;;;27.80;41.16;101371.06;5052451;28;20407;-67
2023/08/07 08:32:00;;;;;;;9.93;1.90;;;;;;;27.82;40.98;101363.41;5020234;28;20404;-67
2023/08/07 08:34:27;;;;;;;5.10;1.67;;;;;;;27.66;41.70;101361.25;5031097;28;20034;-67
2023/08/07 08:36:52;;;;;;;4.70;1.27;;;;;;;27.83;41.19;101378.03;5034258;28;20034;-66
2023/08/07 08:39:18;;;;;;;2.20;1.05;;;;;;;27.87;41.35;101376.47;5049576;28;20029;-66
2023/08/07 08:41:46;;;;;;;4.75;1.13;;;;;;;28.56;39.42;101365.03;5056013;28;20527;-66
2023/08/07 08:44:12;;;;;;;5.22;1.10;;;;;;;28.49;39.84;101378.91;5054764;28;20412;-66
2023/08/07 08:46:38;;;;;;;3.20;1.13;;;;;;;28.24;41.09;101376.28;5038227;28;20036;-67
2023/08/07 08:49:04;;;;;;;4.72;1.50;;;;;;;28.20;40.66;101371.44;5054682;28;20037;-67
2023/08/07 08:51:31;;;;;;;13.48;2.90;;;;;;;28.56;39.99;101370.56;5056449;28;20033;-67
2023/08/07 08:53:56;;;;;;;2.83;1.40;;;;;;;28.21;40.73;101376.72;5054512;28;20392;-66
2023/08/07 08:56:22;;;;;;;2.53;1.20;;;;;;;28.00;40.16;101379.09;5038027;28;20032;-66
2023/08/07 08:58:50;;;;;;;5.82;1.30;;;;;;;28.31;39.36;101370.66;5054213;28;20030;-67
2023/08/07 09:01:17;;;;;;;1.80;0.90;;;;;;;28.17;39.06;101381.00;5054529;28;20416;-67
2023/08/07 09:03:43;;;;;;;2.08;1.10;;;;;;;28.51;38.56;101385.00;5054401;28;20032;-66
2023/08/07 09:06:09;;;;;;;4.05;1.05;;;;;;;28.16;38.98;101373.00;5055710;28;20035;-66
2023/08/07 09:08:35;;;;;;;2.03;1.02;;;;;;;28.17;39.10;101381.00;5037555;28;20041;-66
2023/08/07 09:11:01;;;;;;;6.13;1.35;;;;;;;28.19;38.95;101383.56;5037600;28;20052;-66
2023/08/07 09:13:28;;;;;;;1.65;0.93;;;;;;;27.84;39.55;101388.78;5054306;28;20037;-67
2023/08/07 09:15:54;;;;;;;2.33;1.15;;;;;;;27.70;38.98;101395.53;5054272;28;20499;-66
2023/08/07 09:18:22;;;;;;;4.82;1.10;;;;;;;27.59;40.24;101399.03;5054230;28;20033;-66
2023/08/07 09:20:48;;;;;;;7.50;2.15;;;;;;;27.46;40.21;101400.00;5054360;28;20033;-66
2023/08/07 09:23:16;;;;;;;5.50;1.52;;;;;;;27.25;39.64;101392.09;5055474;28;20406;-66
2023/08/07 09:25:41;;;;;;;9.10;1.20;;;;;;;28.05;38.76;101388.38;5037512;28;20041;-67
2023/08/07 09:28:07;;;;;;;4.63;1.20;;;;;;;28.23;38.94;101385.59;5053998;28;20488;-66
2023/08/07 09:30:34;;;;;;;5.53;1.52;;;;;;;28.81;38.52;101393.34;5053952;28;20051;-66
2023/08/07 09:33:00;;;;;;;4.55;1.17;;;;;;;29.43;37.58;101392.72;5054090;28;20037;-66
2023/08/07 09:35:26;;;;;;;4.78;1.20;;;;;;;29.24;38.01;101387.56;5053842;28;20033;-66
2023/08/07 09:37:52;;;;;;;1.52;1.05;;;;;;;28.85;38.44;101400.88;5053938;28;20112;-66
2023/08/07 09:40:18;;;;;;;4.07;1.00;;;;;;;28.64;38.38;101408.84;5053777;28;20033;-66
2023/08/07 09:42:44;;;;;;;3.63;0.95;;;;;;;28.42;38.59;101402.13;5053787;28;20113;-65
2023/08/07 09:45:27;;;;;;;2.97;0.98;;;;;;;28.71;38.33;101404.91;5053850;28;20514;-66
2023/08/07 09:48:02;;;;;;;3.80;1.30;;;;;;;28.93;37.96;101410.75;5052957;28;20522;-65
2023/08/07 09:50:28;;;;;;;2.50;1.15;;;;;;;29.13;37.80;101407.66;5053604;28;20045;-65
2023/08/07 09:52:57;;;;;;;7.10;1.27;;;;;;;29.28;37.46;101406.19;5054958;28;20021;-66
2023/08/07 09:55:24;;;;;;;2.60;0.90;;;;;;;29.59;36.63;101407.75;5033876;28;20030;-66
2023/08/07 09:57:50;;;;;;;2.90;1.00;;;;;;;29.16;37.17;101407.19;5033538;28;20452;-66
2023/08/07 10:00:15;;;;;;;5.78;1.10;;;;;;;28.69;37.09;101411.75;5033494;28;20120;-65
2023/08/07 10:03:04;;;;;;;1.58;0.82;;;;;;;28.35;37.58;101409.63;5033544;28;20389;-65
2023/08/07 10:05:30;;;;;;;2.78;1.05;;;;;;;28.61;37.19;101414.81;5049972;28;20040;-66
2023/08/07 10:07:57;;;;;;;2.40;1.25;;;;;;;30.77;34.05;101418.34;5049834;28;20033;-66
2023/08/07 10:10:22;;;;;;;4.93;0.95;;;;;;;31.08;33.72;101417.84;5033067;28;20425;-65
2023/08/07 10:12:48;;;;;;;5.00;1.08;;;;;;;32.22;33.00;101410.78;5033340;28;20029;-66
2023/08/07 10:15:15;;;;;;;2.17;1.10;;;;;;;32.68;33.53;101404.72;5033128;28;20034;-66
2023/08/07 10:17:40;;;;;;;2.22;1.65;;;;;;;32.60;33.29;101399.63;5035218;28;20029;-66
2023/08/07 10:20:08;;;;;;;3.70;0.90;;;;;;;31.85;33.72;101402.22;5034015;28;20048;-65
2023/08/07 10:22:36;;;;;;;3.90;1.88;;;;;;;31.50;33.51;101401.69;5034587;28;20574;-65
2023/08/07 10:25:02;;;;;;;5.45;1.40;;;;;;;32.04;33.09;101413.88;5033050;28;20152;-65
2023/08/07 10:27:38;;;;;;;1.77;0.80;;;;;;;31.86;33.39;101420.50;5016493;28;20492;-65
2023/08/07 10:30:06;;;;;;;6.28;1.20;;;;;;;31.78;33.64;101418.19;5032990;28;20046;-66
2023/08/07 10:32:32;;;;;;;2.70;0.80;;;;;;;32.33;32.28;101415.34;5016413;28;20053;-69
2023/08/07 10:34:57;;;;;;;2.95;0.98;;;;;;;31.97;33.12;101427.88;5038160;28;20481;-68
2023/08/07 10:37:42;;;;;;;7.45;2.28;;;;;;;32.75;31.18;101419.19;5036177;28;20107;-67
2023/08/07 10:40:09;;;;;;;4.57;1.25;;;;;;;32.43;31.66;101426.59;5052547;28;20036;-70
2023/08/07 10:42:58;;;;;;;6.10;1.55;;;;;;;33.15;31.25;101420.72;5052394;28;20033;-63
2023/08/07 10:45:24;;;;;;;3.38;1.60;;;;;;;32.69;31.74;101413.88;5035799;28;20124;-64
2023/08/07 10:48:10;;;;;;;3.08;1.20;;;;;;;32.38;32.12;101417.38;5052614;28;20523;-65
2023/08/07 10:50:48;;;;;;;5.05;1.48;;;;;;;32.34;32.09;101425.34;5052254;28;20044;-66
2023/08/07 10:53:30;;;;;;;5.53;0.98;;;;;;;31.81;32.45;101427.91;5053879;28;20463;-67
2023/08/07 10:55:57;;;;;;;6.30;1.33;;;;;;;32.06;32.55;101431.09;5052400;28;20087;-67
2023/08/07 10:58:41;;;;;;;3.58;1.00;;;;;;;32.36;32.19;101419.56;5051981;28;20029;-66
2023/08/07 11:01:19;;;;;;;1.95;1.00;;;;;;;32.92;30.52;101423.81;5052160;28;20029;-67
2023/08/07 11:03:49;;;;;;;1.65;0.85;;;;;;;33.53;30.75;101416.91;5052171;28;20132;-68
2023/08/07 11:06:15;;;;;;;3.15;1.10;;;;;;;32.98;31.83;101417.22;5035444;28;20040;-68
2023/08/07 11:08:41;;;;;;;1.88;1.10;;;;;;;33.36;31.64;101414.28;5051959;28;20119;-68
2023/08/07 11:11:06;;;;;;;4.07;1.30;;;;;;;33.32;31.25;101433.41;5053431;28;20045;-68
2023/08/07 11:13:33;;;;;;;3.20;1.33;;;;;;;34.19;30.78;101429.31;5052141;28;20496;-68
2023/08/07 11:15:59;;;;;;;1.95;1.70;;;;;;;34.88;30.43;101432.63;5035386;28;20439;-68
2023/08/07 11:18:25;;;;;;;2.95;1.05;;;;;;;34.74;30.41;101426.75;5052152;28;20029;-68
2023/08/07 11:20:52;;;;;;;2.80;0.95;;;;;;;34.11;31.33;101438.16;5051824;28;20040;-68
2023/08/07 11:23:23;;;;;;;3.60;1.05;;;;;;;33.30;31.98;101438.41;5053312;28;20037;-68